Pagrindinis puslapis
METAR-TAF:

METAR-TAF

Oro uostai :

Buraida, Saudo Arabija

platuma: 26-18N, ilguma: 043-46E, Aukštis: 648 m

Dabartinis oras

Ataskaita buvo paskelbta 30 minutes, ne 07:00 UTC
Vėjas 4 kt iš Vakarų/Šiaurės Vakarų
Temperatūra 26°C
Drėgmė 26%
Slėgis 1020 hPa
Matomumas 10 km arba daugiau
nėra debesų žemiau 1500 m ir nėra kamuolinių lietaus debesų

METAR: OEGS 210700Z 30004KT CAVOK 26/05 Q1020

Laikas: 10:30 (07:30 UTC)

Prognozė

Ataskaita buvo paskelbta 8 valandos ir 30 minutes, ne 23:00 UTC
Prognozė galioja nuo 21 metu 00 UTC su 22 metu 06 UTC
Vėjas 3 kt nuo kintamojo kryptimis
Matomumas 10 km arba daugiau
nėra debesų žemiau 1500 m ir nėra kamuolinių lietaus debesų
Tapsmas
nuo 21 metu 11 UTC su 21 metu 13 UTC
Vėjas 8 kt iš Šiaurės

TAF: OEGS 202300Z 2100/2206 VRB03KT CAVOK BECMG 2111/2113 36008KT

Orai ataskaitas ir orų prognozės (METAR, TAF).

turimą stotys yra geltonos ir raudonos taškus žemėlapyje.

Perkelti pele per norėdami pamatyti stoties vardą.

Tada spustelėkite, norėdami matyti oro stebėjimo ir prognozės.

Norėdami pakeisti žemėlapį: spustelėkite ant žalios mygtukų su juodo kryžiaus žemyn,; žalią mygtuką su brūkšneliu, jei norite nutolinti; arba žalių rodyklių gretimoms žemėlapius.


METAR-TAF: